フェニックス の空港の天気 - METARとTAF

フェニックス・スカイハーバー国際空港 ( KPHX / PHX ) - アメリカ アリゾナ州フェニックス
飛行場実況気象(Metar)
観測時間04/21 09:51 MST (04/21 16:51 UTC)
風向・風速不定 2m/s
視程10km以上
天気現象
なし
気温25℃
湿度26%
気圧1009.7hPa
METARKPHX 211651Z VRB03KT 10SM CLR 25/04 A2987 RMK AO2 SLP097 T02500039
過去の天気等 Google飛行場航空写真 Wunderground天気予報

過去48時間のMETAR

飛行場予報(TAF)
発表時間: 4/21 08:05 MST (4/21 15:05 UTC)
予報対象時間: 21日8時 MST ~ 22日11時 MST
風向・風速南 3m/s
視程10km以上
なし
21日9時 MST から
風向・風速南西 4m/s
視程10km以上
なし
21日12時 MST から
風向・風速西南西 5m/s 瞬間風速 9m/s
視程10km以上
なし
21日21時 MST から
風向・風速西南西 4m/s
視程10km以上
なし
22日3時 MST から
風向・風速東 5m/s
視程10km以上
少しの雲 雲底高度 3050m
KPHX 211505Z 2115/2218 17006KT P6SM SKC
FM211630 22008KT P6SM SKC
FM211900 25010G18KT P6SM SKC
FM220400 25007KT P6SM SKC
FM221000 10010KT P6SM FEW100